Time;durP1;ratioP1;P1;durP2;ratioP2;P2;SDS_P1;SDS_P2;PMS_P1;PMS_P2;Temp;Humidity;BMP_temperature;BMP_pressure;BME280_temperature;BME280_humidity;BME280_pressure;Samples;Min_cycle;Max_cycle;Signal;HPM_P1;HPM_P2
2022/07/07 00:05:01;;;;;;;15.48;7.88;;;15.20;99.90;;;;;;6183478;23;20063;-88
2022/07/07 00:08:30;;;;;;;15.80;8.05;;;15.70;99.90;;;;;;6158826;23;20017;-88
2022/07/07 00:15:51;;;;;;;17.27;7.93;;;15.60;99.90;;;;;;6186544;23;20100;-88
2022/07/07 00:18:43;;;;;;;15.57;8.15;;;15.80;99.90;;;;;;6157373;23;20021;-88
2022/07/07 00:21:18;;;;;;;15.20;7.88;;;15.70;99.90;;;;;;6159202;23;20516;-88
2022/07/07 00:24:02;;;;;;;14.70;8.10;;;15.80;99.90;;;;;;6162053;23;20453;-88
2022/07/07 00:27:05;;;;;;;16.38;9.00;;;15.70;99.90;;;;;;6158738;23;20096;-88
2022/07/07 00:29:52;;;;;;;17.00;8.65;;;15.80;99.90;;;;;;6185776;23;20013;-89
2022/07/07 00:32:18;;;;;;;16.55;8.88;;;15.60;99.90;;;;;;6158814;23;20091;-88
2022/07/07 00:35:01;;;;;;;15.35;8.52;;;16.50;99.90;;;;;;6184738;23;20420;-87
2022/07/07 00:37:57;;;;;;;15.73;8.60;;;15.80;99.90;;;;;;6201507;23;20017;-88
2022/07/07 00:41:00;;;;;;;17.17;9.55;;;15.30;99.90;;;;;;6203145;23;20025;-87
2022/07/07 00:43:29;;;;;;;18.77;9.70;;;15.70;99.90;;;;;;6159052;23;20441;-88
2022/07/07 00:46:07;;;;;;;16.92;9.38;;;15.50;99.90;;;;;;6184357;23;20024;-88
2022/07/07 00:48:48;;;;;;;17.08;9.70;;;16.70;99.90;;;;;;6159886;23;20059;-88
2022/07/07 00:51:14;;;;;;;19.33;9.77;;;17.10;99.90;;;;;;6185908;23;20021;-88
2022/07/07 00:53:46;;;;;;;18.38;9.57;;;16.20;99.90;;;;;;6184472;23;20005;-88
2022/07/07 00:56:15;;;;;;;19.45;9.70;;;16.70;99.90;;;;;;6182747;23;20044;-88
2022/07/07 00:59:02;;;;;;;;;;;;;;;;;;;;;
2022/07/07 01:01:47;;;;;;;17.05;10.38;;;17.00;99.90;;;;;;6092886;23;20086;-88
2022/07/07 01:04:19;;;;;;;19.88;10.18;;;16.80;99.90;;;;;;6094604;23;20526;-89
2022/07/07 01:07:03;;;;;;;19.50;10.80;;;17.10;99.90;;;;;;6095506;23;20093;-89
2022/07/07 01:09:35;;;;;;;19.02;10.93;;;16.00;99.90;;;;;;6071355;23;20018;-89
2022/07/07 01:12:21;;;;;;;19.02;10.68;;;15.80;99.90;;;;;;6186646;23;20013;-88
2022/07/07 01:14:47;;;;;;;17.38;10.32;;;16.00;99.90;;;;;;6159539;23;20338;-89
2022/07/07 01:17:22;;;;;;;18.35;10.75;;;16.80;99.90;;;;;;6186886;23;20017;-87
2022/07/07 01:19:51;;;;;;;17.55;10.27;;;16.10;99.90;;;;;;6160303;23;20314;-88
2022/07/07 01:22:17;;;;;;;19.33;10.73;;;16.60;99.90;;;;;;6186174;23;20013;-88
2022/07/07 01:24:52;;;;;;;18.13;10.15;;;15.80;99.90;;;;;;6160539;23;20091;-89
2022/07/07 01:27:34;;;;;;;17.60;10.48;;;16.90;99.90;;;;;;6186899;23;20083;-89
2022/07/07 01:29:59;;;;;;;18.73;11.05;;;15.90;99.90;;;;;;6167217;23;20022;-88
2022/07/07 01:32:44;;;;;;;19.90;11.57;;;17.20;99.90;;;;;;6130803;23;20025;-88
2022/07/07 01:35:20;;;;;;;18.90;11.30;;;16.60;99.90;;;;;;6156366;23;20044;-88
2022/07/07 01:38:17;;;;;;;21.83;11.07;;;16.60;99.90;;;;;;6129947;23;20013;-88
2022/07/07 01:40:57;;;;;;;19.58;11.20;;;16.10;99.90;;;;;;6126703;23;20017;-89
2022/07/07 01:46:08;;;;;;;18.17;10.65;;;16.10;99.90;;;;;;6163207;23;20025;-88
2022/07/07 01:48:39;;;;;;;19.30;11.25;;;16.00;99.90;;;;;;6156056;23;20024;-88
2022/07/07 01:51:20;;;;;;;20.27;11.98;;;16.20;99.90;;;;;;6157006;23;20102;-89
2022/07/07 01:54:13;;;;;;;21.77;12.65;;;16.00;99.90;;;;;;6166511;23;20021;-88
2022/07/07 01:57:13;;;;;;;21.42;12.13;;;16.10;99.90;;;;;;6183368;23;20099;-89
2022/07/07 01:59:51;;;;;;;21.60;13.23;;;16.00;99.90;;;;;;6160573;23;20460;-89
2022/07/07 02:02:20;;;;;;;23.55;12.20;;;16.40;99.90;;;;;;6185974;23;20084;-90
2022/07/07 02:08:24;;;;;;;17.23;9.93;;;15.70;99.90;;;;;;6183701;23;20044;-90
2022/07/07 02:13:54;;;;;;;17.38;9.98;;;15.90;99.90;;;;;;6156478;23;20025;-89
2022/07/07 02:16:26;;;;;;;14.85;8.85;;;15.90;99.90;;;;;;6159563;23;20017;-90
2022/07/07 02:20:07;;;;;;;18.17;8.25;;;16.10;99.90;;;;;;6120714;23;20337;-90
2022/07/07 02:22:33;;;;;;;14.50;7.40;;;15.80;99.90;;;;;;6159963;23;20028;-89
2022/07/07 02:24:58;;;;;;;13.40;6.90;;;16.30;99.90;;;;;;6160118;23;20012;-90
2022/07/07 03:11:28;;;;;;;11.82;5.00;;;15.60;99.90;;;;;;6181917;23;20029;-90
2022/07/07 04:40:00;;;;;;;11.77;3.92;;;15.50;99.90;;;;;;6182634;23;20091;-86
2022/07/07 04:42:50;;;;;;;10.75;3.63;;;16.30;99.90;;;;;;6166538;23;20107;-85
2022/07/07 04:45:42;;;;;;;10.27;2.92;;;15.50;99.90;;;;;;6130224;23;20056;-86
2022/07/07 04:52:47;;;;;;;6.47;2.00;;;14.80;99.90;;;;;;6184991;23;20098;-86
2022/07/07 05:18:48;;;;;;;10.45;2.03;;;15.30;99.90;;;;;;6155930;23;20399;-89
2022/07/07 05:21:57;;;;;;;9.18;2.22;;;14.50;99.90;;;;;;6167501;23;20413;-88
2022/07/07 05:25:26;;;;;;;;;;;;;;;;;;;;;
2022/07/07 06:53:54;;;;;;;10.73;2.75;;;16.00;99.90;;;;;;6159676;23;20052;-91
2022/07/07 06:56:48;;;;;;;12.02;2.40;;;16.00;99.90;;;;;;6157800;23;20063;-91
2022/07/07 06:59:34;;;;;;;9.80;2.20;;;16.00;99.90;;;;;;6160433;23;20071;-93
2022/07/07 07:02:37;;;;;;;7.00;2.20;;;16.20;99.90;;;;;;6156050;23;20022;-94
2022/07/07 07:05:16;;;;;;;9.82;2.47;;;16.20;99.90;;;;;;6154254;23;20472;-91
2022/07/07 07:07:51;;;;;;;10.02;2.10;;;17.00;99.90;;;;;;6154117;23;20017;-91
2022/07/07 07:18:37;;;;;;;11.55;2.20;;;16.50;99.90;;;;;;6160171;23;20029;-90
2022/07/07 07:23:51;;;;;;;10.20;1.85;;;17.00;99.90;;;;;;6182671;23;20396;-93
2022/07/07 07:26:16;;;;;;;8.80;1.95;;;17.60;99.90;;;;;;6160483;23;20032;-92
2022/07/07 07:35:47;;;;;;;9.25;1.70;;;16.30;99.90;;;;;;6063197;23;20498;-85
2022/07/07 07:38:22;;;;;;;10.43;1.98;;;15.70;99.90;;;;;;6041196;23;20101;-88
2022/07/07 07:41:19;;;;;;;8.30;1.60;;;17.70;99.90;;;;;;6042127;23;20110;-87
2022/07/07 07:52:28;;;;;;;6.35;1.50;;;17.40;99.90;;;;;;6158053;23;20034;-87
2022/07/07 08:04:05;;;;;;;5.30;1.55;;;16.60;99.90;;;;;;6184329;23;20323;-91
2022/07/07 08:06:30;;;;;;;6.20;1.67;;;16.20;99.90;;;;;;6148572;23;20029;-95
2022/07/07 08:17:08;;;;;;;4.10;1.20;;;16.90;99.90;;;;;;6168634;23;20027;-92
2022/07/07 08:43:15;;;;;;;5.40;1.30;;;16.90;99.90;;;;;;6155192;23;20064;31
2022/07/07 08:58:42;;;;;;;;;;;;;;;;;;;;;
2022/07/07 09:40:02;;;;;;;4.95;1.52;;;16.40;99.90;;;;;;6157899;23;20020;-91
2022/07/07 09:43:13;;;;;;;7.03;1.65;;;16.80;99.90;;;;;;6163408;23;20022;-91
2022/07/07 09:50:14;;;;;;;4.18;1.38;;;16.60;99.90;;;;;;6134022;23;20076;-94
2022/07/07 10:18:35;;;;;;;6.25;1.60;;;17.10;99.90;;;;;;6159435;23;20021;-94
2022/07/07 10:24:28;;;;;;;6.68;1.65;;;16.50;99.90;;;;;;6179797;23;20116;-95
2022/07/07 10:46:39;;;;;;;5.90;1.70;;;18.20;99.90;;;;;;6181796;23;20063;-92
2022/07/07 10:49:53;;;;;;;7.18;1.90;;;17.90;99.90;;;;;;5969863;23;20476;-95
2022/07/07 10:59:56;;;;;;;;;;;;;;;;;;;;;
2022/07/07 11:03:29;;;;;;;;;;;;;;;;;;;;;
2022/07/07 11:06:28;;;;;;;6.00;1.83;;;17.10;99.90;;;;;;6038399;23;20364;-94
2022/07/07 11:40:37;;;;;;;10.45;2.50;;;16.00;99.90;;;;;;6144105;23;20039;-92
2022/07/07 11:43:28;;;;;;;13.27;2.30;;;15.90;99.90;;;;;;6069334;23;20388;-96
2022/07/07 11:50:24;;;;;;;13.65;3.00;;;16.00;99.90;;;;;;6161084;23;20027;-94
2022/07/07 12:36:01;;;;;;;;;;;;;;;;;;;;;
2022/07/07 12:49:12;;;;;;;10.65;2.20;;;17.50;99.90;;;;;;6175472;23;20149;-94
2022/07/07 14:22:36;;;;;;;12.25;2.42;;;16.70;99.90;;;;;;6161908;23;21068;31
2022/07/07 14:47:28;;;;;;;10.60;2.25;;;17.00;99.90;;;;;;6154364;23;20016;-88
2022/07/07 14:50:10;;;;;;;12.30;2.35;;;17.00;99.90;;;;;;6127572;23;20021;-87
2022/07/07 14:52:39;;;;;;;7.82;2.03;;;17.00;99.90;;;;;;6129180;23;20021;-88
2022/07/07 14:55:11;;;;;;;13.63;3.08;;;18.20;99.90;;;;;;6154913;23;20017;-89
2022/07/07 14:58:00;;;;;;;11.52;2.42;;;17.60;99.90;;;;;;6154570;23;20025;-89
2022/07/07 15:08:28;;;;;;;9.15;2.45;;;16.60;99.90;;;;;;6159116;23;20017;-89
2022/07/07 15:11:09;;;;;;;13.20;2.42;;;17.00;99.90;;;;;;6135874;23;20021;-89
2022/07/07 15:13:47;;;;;;;13.82;2.72;;;16.90;99.90;;;;;;6192259;23;20020;-92
2022/07/07 15:16:12;;;;;;;12.85;2.55;;;17.00;99.90;;;;;;6185200;23;20022;-86
2022/07/07 15:18:40;;;;;;;14.60;3.33;;;16.90;99.90;;;;;;6160613;23;20025;-89
2022/07/07 15:21:07;;;;;;;9.95;2.05;;;16.90;99.90;;;;;;6159039;23;20016;-89
2022/07/07 15:23:33;;;;;;;11.65;2.20;;;17.80;99.90;;;;;;6185682;23;20027;-92
2022/07/07 15:26:05;;;;;;;8.32;2.00;;;17.60;99.90;;;;;;6185055;23;20437;-91
2022/07/07 15:28:34;;;;;;;8.88;2.15;;;17.20;99.90;;;;;;6185408;23;20029;-89
2022/07/07 15:30:59;;;;;;;10.52;1.92;;;17.20;99.90;;;;;;6158320;23;20060;-87
2022/07/07 15:33:25;;;;;;;8.30;2.13;;;17.30;99.90;;;;;;6157667;23;20013;-88
2022/07/07 15:35:51;;;;;;;10.27;2.20;;;17.30;99.90;;;;;;6184538;23;20047;-88
2022/07/07 15:38:17;;;;;;;10.18;2.13;;;17.30;99.90;;;;;;6159028;23;20443;-89
2022/07/07 15:40:45;;;;;;;9.43;1.95;;;17.40;99.90;;;;;;6184008;23;20144;-90
2022/07/07 15:43:17;;;;;;;10.15;2.30;;;17.40;99.90;;;;;;6156621;23;20135;-89
2022/07/07 15:45:42;;;;;;;8.52;2.30;;;17.90;99.90;;;;;;6185915;23;20021;-89
2022/07/07 15:48:08;;;;;;;9.23;2.10;;;18.00;99.90;;;;;;6185293;23;20056;-89
2022/07/07 15:50:34;;;;;;;9.43;2.00;;;17.90;99.90;;;;;;6193353;23;20028;-91
2022/07/07 15:53:00;;;;;;;10.00;2.33;;;17.60;99.90;;;;;;6200198;23;20056;-92
2022/07/07 15:55:56;;;;;;;11.30;2.17;;;17.00;99.90;;;;;;6130433;23;20100;-93
2022/07/07 15:58:40;;;;;;;11.25;1.80;;;17.00;99.90;;;;;;6013103;23;20030;-90
2022/07/07 16:01:24;;;;;;;10.70;2.05;;;17.10;99.90;;;;;;6184210;23;20017;-89
2022/07/07 16:06:46;;;;;;;12.02;2.00;;;17.10;99.90;;;;;;6158004;23;20024;-89
2022/07/07 16:09:11;;;;;;;9.45;2.10;;;17.30;99.90;;;;;;6157581;23;20021;-89
2022/07/07 16:11:46;;;;;;;9.50;2.08;;;17.60;99.90;;;;;;6157222;23;20017;-89
2022/07/07 16:14:18;;;;;;;9.82;2.05;;;16.80;99.90;;;;;;6157788;23;20337;-89
2022/07/07 16:16:47;;;;;;;10.30;1.95;;;16.90;99.90;;;;;;6158347;23;20017;-89
2022/07/07 16:19:15;;;;;;;12.15;2.13;;;17.70;99.90;;;;;;6157977;23;20094;-89
2022/07/07 16:21:47;;;;;;;10.98;2.15;;;16.40;99.90;;;;;;6183611;23;20017;-90
2022/07/07 16:24:13;;;;;;;9.73;1.98;;;16.60;99.90;;;;;;6158561;23;20009;-89
2022/07/07 16:26:38;;;;;;;10.70;2.50;;;16.00;99.90;;;;;;6158250;23;20417;-88
2022/07/07 16:29:08;;;;;;;9.27;1.90;;;17.30;99.90;;;;;;6157372;23;20441;-88
2022/07/07 16:31:35;;;;;;;9.68;2.10;;;17.30;99.90;;;;;;6184699;23;20063;-88
2022/07/07 16:34:01;;;;;;;12.32;2.33;;;16.50;99.90;;;;;;6157897;23;20091;-89
2022/07/07 16:36:27;;;;;;;9.75;2.30;;;16.50;99.90;;;;;;6159304;23;20021;-89
2022/07/07 16:38:53;;;;;;;13.25;2.17;;;16.90;99.90;;;;;;6159465;23;20346;-89
2022/07/07 16:41:21;;;;;;;8.77;2.03;;;16.70;99.90;;;;;;6160393;23;20017;-89
2022/07/07 16:43:50;;;;;;;10.15;2.28;;;16.60;99.90;;;;;;6184971;23;20016;-89
2022/07/07 16:46:16;;;;;;;10.25;2.08;;;16.70;99.90;;;;;;6159797;23;20446;-90
2022/07/07 16:48:41;;;;;;;11.23;2.00;;;16.50;99.90;;;;;;6186763;23;20046;-90
2022/07/07 16:51:09;;;;;;;11.85;2.65;;;16.40;99.90;;;;;;6185739;23;20013;-90
2022/07/07 16:53:34;;;;;;;12.82;2.45;;;16.40;99.90;;;;;;6186205;23;20024;-89
2022/07/07 16:56:00;;;;;;;12.25;2.03;;;16.40;99.90;;;;;;6159269;23;20101;-88
2022/07/07 16:58:27;;;;;;;9.80;2.35;;;16.90;99.90;;;;;;6159277;23;20021;-90
2022/07/07 17:00:54;;;;;;;9.93;2.75;;;16.30;99.90;;;;;;6158668;23;20064;-88
2022/07/07 17:03:20;;;;;;;8.20;1.90;;;16.30;99.90;;;;;;6152628;23;20108;-91
2022/07/07 17:05:46;;;;;;;8.07;1.90;;;16.20;99.90;;;;;;6160341;23;20029;-91
2022/07/07 17:08:12;;;;;;;11.70;2.30;;;16.30;99.90;;;;;;6161936;23;20088;-91
2022/07/07 17:10:38;;;;;;;13.82;2.50;;;16.90;99.90;;;;;;6160982;23;20164;-93
2022/07/07 17:13:05;;;;;;;9.77;2.40;;;16.80;99.90;;;;;;6163696;23;20446;-91
2022/07/07 17:15:56;;;;;;;12.43;2.50;;;16.40;99.90;;;;;;6146351;23;20072;-96
2022/07/07 17:18:22;;;;;;;10.90;2.28;;;16.20;99.90;;;;;;6158832;23;20089;-92
2022/07/07 17:20:56;;;;;;;8.55;1.92;;;16.20;99.90;;;;;;6160252;23;20017;-94
2022/07/07 17:23:22;;;;;;;8.05;1.90;;;15.50;99.90;;;;;;6158363;23;20018;-94
2022/07/07 17:26:05;;;;;;;11.45;2.33;;;16.60;99.90;;;;;;6129969;23;20140;-93
2022/07/07 17:28:34;;;;;;;9.10;2.08;;;15.90;99.90;;;;;;6155887;23;20021;-94
2022/07/07 17:31:03;;;;;;;8.25;1.83;;;16.10;99.90;;;;;;6156378;23;20026;-94
2022/07/07 17:33:29;;;;;;;10.02;2.22;;;16.00;99.90;;;;;;6154875;23;20021;-91
2022/07/07 17:36:05;;;;;;;8.95;1.92;;;16.40;99.90;;;;;;6152287;23;20032;-93
2022/07/07 17:38:49;;;;;;;11.00;2.10;;;16.00;99.90;;;;;;6130452;23;20087;-92
2022/07/07 17:41:37;;;;;;;11.13;2.35;;;15.80;99.90;;;;;;6156092;23;20014;-93
2022/07/07 17:44:57;;;;;;;9.98;2.10;;;15.50;99.90;;;;;;6153769;23;20017;-92
2022/07/07 17:48:49;;;;;;;11.88;2.05;;;15.80;99.90;;;;;;6050964;23;20070;-95
2022/07/07 17:51:39;;;;;;;12.57;2.15;;;15.80;99.90;;;;;;5992473;23;20047;-93
2022/07/07 17:54:05;;;;;;;9.50;2.10;;;16.50;99.90;;;;;;6157131;23;20021;-94
2022/07/07 17:56:59;;;;;;;10.95;1.90;;;15.70;99.90;;;;;;6155729;23;20076;-95
2022/07/07 17:59:25;;;;;;;11.57;2.05;;;15.80;99.90;;;;;;6161409;23;20021;-89
2022/07/07 18:01:51;;;;;;;10.25;2.00;;;17.00;99.90;;;;;;6155522;23;20443;-90
2022/07/07 18:04:16;;;;;;;9.77;2.10;;;16.00;99.90;;;;;;6154551;23;20440;-90
2022/07/07 18:06:42;;;;;;;10.30;1.90;;;16.40;99.90;;;;;;6155047;23;20100;-89
2022/07/07 18:09:11;;;;;;;7.85;1.90;;;15.90;99.90;;;;;;6156926;23;20022;-89
2022/07/07 18:11:45;;;;;;;12.65;2.53;;;16.60;99.90;;;;;;6156087;23;20418;-90
2022/07/07 18:14:23;;;;;;;8.43;1.75;;;15.80;99.90;;;;;;6155695;23;20026;-87
2022/07/07 18:17:05;;;;;;;11.35;2.20;;;15.20;99.90;;;;;;6155331;23;20522;-86
2022/07/07 18:19:45;;;;;;;11.77;2.45;;;16.80;99.90;;;;;;6155859;23;20438;-89
2022/07/07 18:22:30;;;;;;;8.82;1.80;;;16.80;99.90;;;;;;6155570;23;20064;-91
2022/07/07 18:25:14;;;;;;;10.88;2.33;;;15.20;99.90;;;;;;6156305;23;20029;-89
2022/07/07 18:27:54;;;;;;;8.82;2.15;;;15.50;99.90;;;;;;6156583;23;20018;-91
2022/07/07 18:30:20;;;;;;;12.57;2.20;;;16.20;99.90;;;;;;6155337;23;20025;-88
2022/07/07 18:33:01;;;;;;;10.45;2.10;;;15.40;99.90;;;;;;6154602;23;20346;-88
2022/07/07 18:35:36;;;;;;;11.88;2.63;;;15.60;99.90;;;;;;6155533;23;20021;-89
2022/07/07 18:38:23;;;;;;;11.07;2.40;;;16.50;99.90;;;;;;6156507;23;20021;-90
2022/07/07 18:40:49;;;;;;;12.63;2.47;;;16.10;99.90;;;;;;6155117;23;20450;-88
2022/07/07 18:43:14;;;;;;;9.15;2.10;;;16.50;99.90;;;;;;6153347;23;20024;-88
2022/07/07 18:45:40;;;;;;;13.25;4.25;;;15.50;99.90;;;;;;6156846;23;20096;-88
2022/07/07 18:48:18;;;;;;;10.00;2.10;;;16.10;99.90;;;;;;6155085;23;20029;-88
2022/07/07 18:53:53;;;;;;;11.23;2.30;;;15.40;99.90;;;;;;6172527;23;20026;-91
2022/07/07 18:56:19;;;;;;;9.85;2.00;;;15.80;99.90;;;;;;6165043;23;20261;-88
2022/07/07 18:58:44;;;;;;;10.10;1.88;;;15.60;99.90;;;;;;6158275;23;20217;-88
2022/07/07 19:01:10;;;;;;;8.60;1.88;;;14.70;99.90;;;;;;6157607;23;20466;-89
2022/07/07 19:03:44;;;;;;;8.52;2.22;;;15.10;99.90;;;;;;6154551;23;20370;-88
2022/07/07 19:06:19;;;;;;;;;;;16.00;99.90;;;;;;6157427;23;20017;-90
2022/07/07 19:09:00;;;;;;;12.82;3.08;;;15.20;99.90;;;;;;6153972;23;19967;-87
2022/07/07 19:11:25;;;;;;;12.55;2.10;;;15.70;99.90;;;;;;6155167;23;20013;-88
2022/07/07 19:14:05;;;;;;;7.85;1.85;;;15.20;99.90;;;;;;6154775;23;20025;-89
2022/07/07 19:16:31;;;;;;;10.10;2.03;;;15.20;99.90;;;;;;6156348;23;20014;-87
2022/07/07 19:19:17;;;;;;;10.93;2.08;;;14.70;99.90;;;;;;6155481;23;20067;-88
2022/07/07 19:21:52;;;;;;;8.13;1.90;;;14.90;99.90;;;;;;6155790;23;20009;-90
2022/07/07 19:24:36;;;;;;;9.73;2.00;;;15.10;99.90;;;;;;6153404;23;20681;-91
2022/07/07 19:27:11;;;;;;;9.38;1.80;;;15.10;99.90;;;;;;6155896;23;20013;-91
2022/07/07 19:29:48;;;;;;;10.77;2.33;;;15.90;99.90;;;;;;6156550;23;20021;-91
2022/07/07 19:32:32;;;;;;;12.70;2.10;;;15.30;99.90;;;;;;6155213;23;20144;-90
2022/07/07 19:34:58;;;;;;;11.48;2.80;;;14.90;99.90;;;;;;6155636;23;20017;-89
2022/07/07 19:37:30;;;;;;;9.52;2.05;;;15.70;99.90;;;;;;6154798;23;20017;-90
2022/07/07 19:40:14;;;;;;;10.48;1.90;;;14.40;99.90;;;;;;6153424;23;20370;-89
2022/07/07 19:42:47;;;;;;;10.80;2.10;;;14.90;99.90;;;;;;6155315;23;20450;-89
2022/07/07 19:45:13;;;;;;;7.32;1.70;;;14.90;99.90;;;;;;6155158;23;20065;-90
2022/07/07 19:47:51;;;;;;;9.88;2.00;;;15.60;99.90;;;;;;6155902;23;20021;-89
2022/07/07 19:50:33;;;;;;;9.65;2.20;;;15.60;99.90;;;;;;6154252;23;20024;-89
2022/07/07 19:53:05;;;;;;;9.60;2.00;;;16.00;99.90;;;;;;6156988;23;20014;-90
2022/07/07 19:55:31;;;;;;;9.15;2.28;;;14.90;99.90;;;;;;6156929;23;20025;-90
2022/07/07 19:57:57;;;;;;;9.68;2.00;;;15.00;99.90;;;;;;6156913;23;20060;-89
2022/07/07 20:00:23;;;;;;;8.95;1.95;;;14.10;99.90;;;;;;6158580;23;20116;-88
2022/07/07 21:58:12;;;;;;;12.95;2.42;;;14.20;99.90;;;;;;6214350;23;20362;-85
2022/07/07 22:32:10;;;;;;;9.07;2.30;;;14.20;99.90;;;;;;6159921;23;20048;-85
2022/07/07 23:26:23;;;;;;;13.38;2.45;;;14.10;99.90;;;;;;6185858;23;20061;-86
2022/07/07 23:30:07;;;;;;;9.63;2.40;;;14.10;99.90;;;;;;6121148;23;20020;-85
